메인 페이지
METAR-TAF:

METAR-TAF

공항 :

Fort Dodge, 아이오와, 미국

위도: 42-33N, 경도: 094-11W, 고도: 354m

현재 날씨관측

예보는 17분 전, 13:56시(UTC)에 발표되었습니다.
남남서8kt
온도 12°C
습도 100%
기압 1005 hPa
시정: 0.4km
고도 200ft 상공 흐림
안개

METAR: KFOD 071356Z AUTO 21008KT 1/4SM FG OVC002 12/12 A2969 RMK AO2 SLP080 T01220122

시각: 09:13 (14:13 UTC)

예보

예보는 1 시간 28분 전, 12:45시(UTC)에 발표되었습니다.
예보 대상 시간: 07일 13시부터 08일 12시까지 (UTC)
남남서8kt
시정: 0.8km
고도 200ft 상공 흐림
안개
07일 1330시부터 (UTC)
남서7kt
시정: 8.0km
고도 3500ft 상공 구름 보통
박무
07일 1400시부터 (UTC)
서남서9kt
시정: 10km
고도 6000ft 상공 구름 보통
07일 1700시부터 (UTC)
서북서11kt
시정: 10km
고도 15000ft 상공 구름 조금
07일 2000시부터 (UTC)
북서11kt
시정: 10km
고도 25000ft 상공 구름 조금

TAF: KFOD 071245Z 0713/0812 20008KT 1/2SM FG OVC002 FM071330 23007KT 5SM BR SCT035 FM071400 25009KT P6SM SCT060 FM071700 29011KT P6SM FEW150 FM072000 32011KT P6SM FEW250

4,000개 이상의 공항 관측 자료 및 예보 (METAR 및 TAF 보고).

지도상에서 검색 가능한 기상관측소가 노란 점과 빨간 점으로 표시되어 있습니다.

기상관측소 명을 보려면 표시 위로 마우스를 이동하세요.

날씨 관측과 예보를 보려면 클릭하세요.

지도 변경 : 확대하려면 엑스 표시가 있는 녹색 버튼, 축소하려면 빼기 표시가 있는 녹색 버튼, 다음 페이지의 지도를 보려면 녹색 화살표를 클릭하세요.


METAR-TAF: